Hartberg, Austria
Current Conditions -  °F | °C
As of 7:20 AM on Monday 26 Jan 2015 (Local Time) from LOWG Reporting Station
Clear Clear  
Wind Chill: 23°   Ceiling: Unl
Heat Index: 23°   Visibility: 6mi
Dew Point: 21°   Wind: 1mph
Humidity: 93%   Direction: NA
Pressure: 30.24"   Gusts: NA
Location:  46.98°N, 16.12°E
Report Text: LOWG 260620Z VRB01KT CAVOK M05/M06 Q1024 R17/1///95 NOSIG
Loading
Personal Weather Stations






























Interactive Weather Map New forecast layout! Learn more

10-Day Weather Forecast

Advertisements
Track Severe Weather on mobile